TimeCDT,TemperatureF,Dew PointF,Humidity,Sea Level PressureIn,VisibilityMPH,Wind Direction,Wind SpeedMPH,Gust SpeedMPH,PrecipitationIn,Events,Conditions,WindDirDegrees,DateUTC
12:53 AM,34.0,27.0,75,29.98,10.0,West,4.6,-,N/A,,Clear,280,2012-10-15 05:53:00
1:53 AM,32.0,26.1,79,29.98,10.0,West,4.6,-,N/A,,Clear,270,2012-10-15 06:53:00
2:53 AM,30.9,26.1,82,29.99,10.0,WNW,3.5,-,N/A,,Clear,290,2012-10-15 07:53:00
3:53 AM,28.0,25.0,88,29.99,10.0,WNW,3.5,-,N/A,,Clear,300,2012-10-15 08:53:00
4:53 AM,28.9,24.1,82,29.99,10.0,WNW,3.5,-,N/A,,Clear,290,2012-10-15 09:53:00
5:53 AM,28.9,25.0,85,29.99,10.0,Calm,Calm,-,N/A,,Clear,0,2012-10-15 10:53:00
6:53 AM,26.1,23.0,88,29.99,10.0,SW,3.5,-,N/A,,Clear,230,2012-10-15 11:53:00
7:53 AM,27.0,24.1,89,30.01,10.0,WSW,5.8,-,N/A,,Clear,250,2012-10-15 12:53:00
8:53 AM,36.0,30.0,79,30.00,10.0,Calm,Calm,-,N/A,,Partly Cloudy,0,2012-10-15 13:53:00
9:53 AM,48.0,36.0,63,30.01,10.0,Calm,Calm,-,N/A,,Clear,0,2012-10-15 14:53:00
10:53 AM,57.0,37.0,47,30.00,10.0,South,6.9,-,N/A,,Clear,170,2012-10-15 15:53:00
11:53 AM,62.1,37.9,41,29.98,10.0,SSW,8.1,-,N/A,,Clear,200,2012-10-15 16:53:00
12:53 PM,64.9,37.0,36,29.95,10.0,SSE,9.2,-,N/A,,Clear,150,2012-10-15 17:53:00
1:53 PM,66.9,37.0,33,29.91,10.0,South,8.1,16.1,N/A,,Clear,170,2012-10-15 18:53:00
2:53 PM,69.1,36.0,30,29.88,10.0,South,11.5,-,N/A,,Clear,170,2012-10-15 19:53:00
3:53 PM,69.1,37.0,31,29.87,10.0,South,15.0,-,N/A,,Clear,170,2012-10-15 20:53:00
4:53 PM,69.1,37.9,32,29.85,10.0,South,16.1,-,N/A,,Clear,170,2012-10-15 21:53:00
5:53 PM,66.9,39.0,36,29.83,10.0,SSE,9.2,-,N/A,,Clear,160,2012-10-15 22:53:00
6:53 PM,62.1,41.0,46,29.83,10.0,SE,12.7,-,N/A,,Clear,140,2012-10-15 23:53:00
7:53 PM,59.0,42.1,53,29.82,10.0,SSE,11.5,-,N/A,,Clear,150,2012-10-16 00:53:00
8:53 PM,55.9,42.1,60,29.81,10.0,SSE,9.2,-,N/A,,Clear,150,2012-10-16 01:53:00
9:53 PM,54.0,42.1,64,29.79,10.0,SSE,9.2,-,N/A,,Clear,160,2012-10-16 02:53:00
10:53 PM,54.0,42.1,64,29.76,10.0,SSE,11.5,-,N/A,,Clear,150,2012-10-16 03:53:00
11:53 PM,55.0,43.0,64,29.74,10.0,SSE,13.8,-,N/A,,Clear,160,2012-10-16 04:53:00